Millburn, NJ

8:32 AM EDT on May 29, 2017 (GMT -0400)
Larchmont Estates | | Change Station

Elev 89 ft 40.71 °N, 74.30 °W | Updated 1 minute ago

Overcast
Overcast
57.4 °F
Feels Like 57.4 °F
N
1.6
Wind Variable Wind from West
Gusts 2.7 mph

Today
High -- | Low -- °F
--% Chance of Precip.
Yesterday
High -- | Low -- °F
Precip. -- in
Pressure 29.90 in
Visibility 10.0 miles
Clouds Mostly Cloudy 1200 ft
Overcast 2000 ft
Dew Point 57 °F
Humidity 99%
Rainfall 0.07 in
Snow Depth Not available.
5:29 AM 8:20 PM
Waxing Crescent, 19% visible
METAR KEWR 291151Z VRB06KT 10SM BKN012 OVC020 14/13 A2990 RMK AO2 RAE27 SLP123 CIG 011V015 P0000 60009 70009 T01440128 10161 20144 51011
Pressure 29.90 in
Visibility 10.0 miles
Clouds Mostly Cloudy 1200 ft
Overcast 2000 ft
Dew Point 57 °F
Humidity 99%
Rainfall 0.07 in
Snow Depth Not available.
5:29 AM 8:20 PM
Waxing Crescent, 19% visible
METAR KEWR 291151Z VRB06KT 10SM BKN012 OVC020 14/13 A2990 RMK AO2 RAE27 SLP123 CIG 011V015 P0000 60009 70009 T01440128 10161 20144 51011

Get Severe Weather Alerts

Thanks for signing up!

Be on the lookout for a verification email in your inbox.

You'll start receiving the daily forecast at 6 AM.

×

10-Day Weather Forecast

Almanac

Astronomy

May. 29, 2017 Rise Set
Actual Time
Civil Twilight
Nautical Twilight
Astronomical Twilight
Moon
Length of Visible Light
Length of Day
Tomorrow will be .
, % of the Moon is Illuminated

Today's Extremes

State Highs State Lows

Community

WunderPhotos

Category 6

Welcome to Category 6. This is the collective home for Weather Underground's featured writeups by Dr. Jeff Masters (right), Bob Henson (left), Chris Burt, and other regular contributors.

Nearby

Air Quality

  Air Quality AQ Index Pollutant
Not available.

Snow Depth

Station Depth Elevation

Earthquake Activity

City Distance Mag. Time & Date
Minimum magnitude displayed is 2.5.

Coastal Water Temperatures

Place Temperature

Stations

Nearby Weather Stations

Station Location Temp. Windchill Dew Point Humidity Wind Precip. Elev Updated Type
                   

Watches & Warnings

There are currently no watches in effect.